x

Buoy B01 - Western Maine Shelf (44030) Wave Buoy

3:04 - Sat 6th Feb 2016 All times are EST. -5 hours from GMT.

  • Sig Wave height 2.3ft
  • Peak Period 3s
  • Wind
    18mph, 22mph gusts
  • Sea Temp 43°f
  • Air Temp 27°f
  • Sea Pressure 1024mb
  • Buoy B01 - Western Maine Shelf
  • Buoy B01 - Western Maine Shelf

More Historic Weather Station data

Upgrade to MSW Pro to gain access to the past 30 days of data for over 8000 Wavebouys and Weather Stations around the globe.

Join Pro

Comparision Forecast

View Surf forecast
   
sam. 02/06 3:04 2.5ft 3s 18 22 mph 1024mb 43f 27f
2:04 3.5ft 3s 18 22 mph 1023.7mb 43f 27f
1:04 3.5ft 6s 18 20 mph 1022.9mb 43f 26f
12:04 3.5ft 8s 16 20 mph 1022.4mb 43f 26f
ven. 02/05 11:04 2.5ft 3s 20 27 mph 1021.6mb 43f 27f
10:04 4ft 8s 18 22 mph 1020.5mb 43f 27f
9:04 3ft 3s 18 22 mph 1019.3mb 43f 27f
8:04 4ft 8s 16 20 mph 1018.6mb 43f 28f
7:04 4.5ft 5s 16 20 mph 1017.3mb 43f 29f
6:04 5ft 5s 20 25 mph 1016mb 42f 29f
5:04 5ft 5s 20 25 mph 1015.6mb 42f 30f
4:04 5ft 8s 22 27 mph 1013.5mb 42f 31f
3:04 4.5ft 5s 22 29 mph 1013.4mb 42f 31f
2:04 4.5ft 5s 22 29 mph 1013mb 42f 31f
1:04 5.5ft 5s 25 29 mph - 42f 31f
12:04 6ft 6s 22 27 mph 1015.1mb 42f 31f
11:04 5ft 5s 27 29 mph 1015.8mb 42f 32f
10:04 6ft 6s 25 29 mph 1017.2mb 42f 33f
9:04 5.5ft 5s 20 27 mph 1018.4mb 42f 34f
8:04 6ft 11s 25 29 mph 1017.1mb 42f 34f
7:04 7ft 11s 20 25 mph 1017.5mb 42f 35f
6:04  -   -  20 25 mph 1017.2mb 42f 36f
5:04 6ft 8s 20 25 mph 1017.2mb 42f 37f
4:04 2.5ft 3s 18 22 mph 1016.8mb 42f 39f
3:04 4.5ft 8s 16 18 mph 1017.4mb 42f 42f
2:04 4.5ft 11s 13 16 mph 1017.2mb 42f 42f
1:04 3.5ft 8s 7 9 mph 1017.7mb 42f 42f
12:04 3.5ft 8s 7
mph
1017.5mb 42f 42f
jeu. 02/04 11:04 3.5ft 8s 9
mph
1016.7mb 42f 42f
10:04 3.5ft 8s 7 11 mph 1017.3mb 42f 43f
9:04 4ft 8s 7 9 mph 1017.3mb 42f 43f
8:04 3.5ft 8s 7
mph
1017.7mb 42f 43f
7:04 3.5ft 8s 7 9 mph 1016.8mb 42f 44f
6:04 4.5ft 8s 11 13 mph 1016.5mb 42f 45f
5:04 4.5ft 8s 9 11 mph 1015.3mb 42f 45f
4:04 5ft 8s 13
mph
1014.7mb 42f 47f
3:04 5ft 8s 9 11 mph 1013.7mb 42f 47f
2:04 5ft 8s 9 11 mph 1012.6mb 42f 47f
1:04 5ft 8s 4 7 mph 1012.5mb 42f 44f
12:04 5ft 8s 7 9 mph 1013mb 42f 45f
11:04 6ft 8s 4 7 mph 1012.9mb 42f 44f
10:04 6ft 8s 9 11 mph 1012.7mb 42f 47f
9:04 6ft 8s 20 25 mph 1011.9mb 42f 47f
8:04 7ft 8s 13 16 mph 1010.3mb 42f 46f
7:04 6ft 8s 13 16 mph 1009.5mb 42f 47f
6:04 7ft 8s 16 18 mph 1009.6mb 42f 47f
5:04 7ft 8s 16 18 mph 1009.6mb 42f 47f
4:04 6.5ft 8s 11 13 mph 1009.5mb 42f 47f
3:04 7ft 8s 9 11 mph 1009.9mb 42f 47f
2:04 7.5ft 8s 11
mph
1010.4mb 42f 46f
1:04 7.5ft 8s 11 13 mph 1009.7mb 42f 46f
12:04 9ft 8s 18 22 mph 1009.7mb 43f 48f
mer. 02/03 11:04 11ft 8s 22 29 mph 1008.9mb 43f 50f
10:04 13ft 8s 18 25 mph 1008mb 43f 49f
9:04 11ft 8s 36 45 mph - 42f 50f
8:04 12ft 8s 40 49 mph 1006.2mb 42f 50f
7:04 10ft 8s 36 45 mph 1010.1mb 42f 47f
6:04 12.5ft 8s 31 38 mph 1012.4mb 42f 47f
5:04 9.5ft 8s 31 38 mph 1013.1mb 42f 46f
4:04 10.5ft 8s 25 29 mph 1014.1mb 42f 44f
3:04 11.5ft 8s 25 31 mph 1015.9mb 42f 44f
2:04 8ft 8s 25 31 mph 1017.3mb 42f 44f
1:04 7.5ft 6s 25 29 mph 1018.8mb 42f 43f
12:04 6ft 5s 22 29 mph 1021mb 42f 43f
11:04 6ft 5s 22 27 mph 1023.2mb 42f 42f
10:04 4.5ft 5s 20 27 mph 1025.1mb 42f 42f
9:04 4ft 5s 20 25 mph 1026.1mb 42f 42f
8:04 3.5ft 5s 22 27 mph 1026.3mb 42f 42f
7:04 3.5ft 4s 20 22 mph 1026.9mb 42f 42f
6:04 3.5ft 8s 16 20 mph 1027.7mb 42f 42f
5:04 3.5ft 8s 13 16 mph 1028mb 42f 42f
4:04 3.5ft 8s 13 16 mph 1027.8mb 42f 42f
3:04 3.5ft 8s 11 13 mph 1027.8mb 42f 42f
2:04 3.5ft 5s 9 11 mph 1028.1mb 42f 42f
1:04 4ft 5s 11 13 mph 1027.7mb 42f 42f
12:04 3.5ft 4s 16 20 mph 1028.7mb 42f 40f
mar. 02/02 11:04 3.5ft 4s 18 22 mph 1029mb 42f 39f
10:04 3ft 8s 18 20 mph 1029.3mb 43f 40f
9:04 1.6ft 2s 18 20 mph 1029.1mb 43f 40f
8:04 2.5ft 8s 13 18 mph 1028.5mb 43f 41f
7:04 2.5ft 11s 9 11 mph 1028.2mb 43f 42f
6:04 2.5ft 11s 9 11 mph 1027.1mb 43f 42f
5:04 2.5ft 8s 11 13 mph 1026.2mb 43f 43f
4:04 2.5ft 11s 9 13 mph 1025.1mb 42f 44f
3:04 2.5ft 8s 4 7 mph 1024.2mb 42f 45f
2:04 3ft 11s 4 7 mph 1024.5mb 42f 44f
1:04 2.5ft 8s 11 13 mph 1024.5mb 42f 43f
12:04 3.5ft 11s 9 11 mph 1024.4mb 42f 43f
11:04 2.5ft 11s 9 11 mph 1024.6mb 42f 42f
10:04 2.5ft 8s 9 11 mph 1024.5mb 42f 42f